createdAt,value
2023-01-04T00:00:34.221Z,6.25
2023-01-04T00:03:35.651Z,5.47
2023-01-04T00:06:37.200Z,5.88
2023-01-04T00:09:38.463Z,5.50
2023-01-04T00:12:39.781Z,4.85
2023-01-04T00:15:41.120Z,5.97
2023-01-04T00:18:42.600Z,5.53
2023-01-04T00:21:43.919Z,3.97
2023-01-04T00:24:45.431Z,6.13
2023-01-04T00:27:46.670Z,4.53
2023-01-04T00:30:48.036Z,4.35
2023-01-04T00:33:49.534Z,5.35
2023-01-04T00:36:50.817Z,3.72
2023-01-04T00:39:52.083Z,5.00
2023-01-04T00:42:53.350Z,5.43
2023-01-04T00:45:54.806Z,4.90
2023-01-04T00:49:00.194Z,5.43
2023-01-04T00:52:02.173Z,6.03
2023-01-04T00:55:03.536Z,6.07
2023-01-04T00:58:05.090Z,5.00
2023-01-04T01:01:07.064Z,6.22
2023-01-04T01:04:09.969Z,5.53
2023-01-04T01:07:11.307Z,6.32
2023-01-04T01:10:12.609Z,5.60
2023-01-04T01:13:13.937Z,6.47
2023-01-04T01:16:16.771Z,10.80
2023-01-04T01:19:18.194Z,7.57
2023-01-04T01:22:19.531Z,8.60
2023-01-04T01:25:20.846Z,9.43
2023-01-04T01:28:22.158Z,9.70
2023-01-04T01:31:24.583Z,10.18
2023-01-04T01:34:25.977Z,10.25
2023-01-04T01:37:27.280Z,8.68
2023-01-04T01:40:28.696Z,9.63
2023-01-04T01:44:08.417Z,10.20
2023-01-04T01:47:17.702Z,12.00
2023-01-04T01:50:22.303Z,9.20
2023-01-04T01:53:25.126Z,7.90
2023-01-04T01:56:27.174Z,8.75
2023-01-04T01:59:29.847Z,13.10
2023-01-04T02:02:31.243Z,9.30
2023-01-04T02:05:32.794Z,8.63
2023-01-04T02:08:36.261Z,9.30
2023-01-04T02:11:37.562Z,7.03
2023-01-04T02:14:39.391Z,6.88
2023-01-04T02:17:40.628Z,4.43
2023-01-04T02:20:44.447Z,8.38
2023-01-04T02:24:04.250Z,5.30
2023-01-04T02:27:08.239Z,7.22
2023-01-04T02:30:12.392Z,7.43
2023-01-04T02:33:17.062Z,5.40
2023-01-04T02:36:29.737Z,5.75
2023-01-04T02:39:48.066Z,6.72
2023-01-04T02:43:18.974Z,4.47
2023-01-04T02:46:27.532Z,7.28
2023-01-04T02:49:47.331Z,5.97
2023-01-04T02:52:48.565Z,6.43
2023-01-04T02:56:05.262Z,7.70
2023-01-04T02:59:12.595Z,7.75
2023-01-04T03:02:35.525Z,7.30
2023-01-04T03:06:04.100Z,9.23
2023-01-04T03:09:12.124Z,3.78
2023-01-04T03:12:35.722Z,5.07
2023-01-04T03:15:38.769Z,6.10
2023-01-04T03:18:42.340Z,9.30
2023-01-04T03:21:44.712Z,8.10
2023-01-04T03:25:04.679Z,6.35
2023-01-04T03:28:25.013Z,9.68
2023-01-04T03:31:48.182Z,7.60
2023-01-04T03:35:08.207Z,8.15
2023-01-04T03:38:30.429Z,8.63
2023-01-04T03:41:56.497Z,6.55
2023-01-04T03:45:25.008Z,5.63
2023-01-04T03:48:34.460Z,4.50
2023-01-04T03:51:37.457Z,7.93
2023-01-04T03:54:41.827Z,6.97
2023-01-04T03:57:43.778Z,5.25
2023-01-04T04:00:45.831Z,8.65
2023-01-04T04:04:05.790Z,7.95
2023-01-04T04:07:25.752Z,8.07
2023-01-04T04:10:26.980Z,6.88
2023-01-04T04:13:28.205Z,3.53
2023-01-04T04:16:29.546Z,6.68
2023-01-04T04:19:30.836Z,6.07
2023-01-04T04:22:32.094Z,7.10
2023-01-04T04:25:33.323Z,4.78
2023-01-04T04:28:34.683Z,5.32
2023-01-04T04:31:35.995Z,6.78
2023-01-04T04:34:37.385Z,4.25
2023-01-04T04:37:38.717Z,7.10
2023-01-04T04:40:58.656Z,5.38
2023-01-04T04:43:59.960Z,6.50
2023-01-04T04:47:01.224Z,4.75
2023-01-04T04:50:02.518Z,8.98
2023-01-04T04:53:03.794Z,3.25
2023-01-04T04:56:05.233Z,4.43
2023-01-04T04:59:06.802Z,7.30
2023-01-04T05:02:08.339Z,4.85
2023-01-04T05:05:09.761Z,4.55
2023-01-04T05:08:11.058Z,6.95
2023-01-04T05:11:12.905Z,5.03
2023-01-04T05:14:14.154Z,4.72
2023-01-04T05:17:15.714Z,6.55
2023-01-04T05:20:17.041Z,6.97
2023-01-04T05:23:19.933Z,5.40
2023-01-04T05:26:21.214Z,7.68
2023-01-04T05:29:41.134Z,6.07
2023-01-04T05:32:42.476Z,4.95
2023-01-04T05:35:43.711Z,4.68
2023-01-04T05:38:44.970Z,9.93
2023-01-04T05:42:05.247Z,5.75
2023-01-04T05:45:06.837Z,5.85
2023-01-04T05:48:08.140Z,9.82
2023-01-04T05:51:09.426Z,11.07
2023-01-04T05:54:10.680Z,10.32
2023-01-04T05:57:12.120Z,11.45
2023-01-04T06:00:13.809Z,4.68
2023-01-04T06:03:15.211Z,7.22
2023-01-04T06:06:16.694Z,9.65
2023-01-04T06:09:18.020Z,4.93
2023-01-04T06:12:19.305Z,9.02
2023-01-04T06:15:20.685Z,9.90
2023-01-04T06:18:21.936Z,7.68
2023-01-04T06:21:25.289Z,8.48
2023-01-04T06:24:26.614Z,9.23
2023-01-04T06:27:28.024Z,6.00
2023-01-04T06:30:29.574Z,6.65
2023-01-04T06:33:31.041Z,9.35
2023-01-04T06:36:32.411Z,6.18
2023-01-04T06:39:33.766Z,7.10
2023-01-04T06:42:47.225Z,6.53
2023-01-04T06:45:48.595Z,4.97
2023-01-04T06:48:49.925Z,6.63
2023-01-04T06:51:51.176Z,8.48
2023-01-04T06:54:52.492Z,8.50
2023-01-04T06:57:59.241Z,5.72
2023-01-04T07:01:01.104Z,9.25
2023-01-04T07:04:02.436Z,11.48
2023-01-04T07:07:03.701Z,5.45
2023-01-04T07:10:09.782Z,5.85
2023-01-04T07:13:11.517Z,5.78
2023-01-04T07:16:12.853Z,5.30
2023-01-04T07:19:14.159Z,6.30
2023-01-04T07:22:15.803Z,6.63
2023-01-04T07:25:17.102Z,6.05
2023-01-04T07:28:38.344Z,5.53
2023-01-04T07:31:39.731Z,4.93
2023-01-04T07:34:41.106Z,4.85
2023-01-04T07:37:42.958Z,5.95
2023-01-04T07:40:55.924Z,7.15
2023-01-04T07:43:57.966Z,5.35
2023-01-04T07:46:59.312Z,4.55
2023-01-04T07:50:00.751Z,6.28
2023-01-04T07:53:02.082Z,5.32
2023-01-04T07:56:03.397Z,7.57
2023-01-04T07:59:06.260Z,5.95
2023-01-04T08:02:10.169Z,7.85
2023-01-04T08:05:11.647Z,6.38
2023-01-04T08:08:12.918Z,3.83
2023-01-04T08:11:15.556Z,4.50
2023-01-04T08:14:16.793Z,6.18
2023-01-04T08:17:18.046Z,2.90
2023-01-04T08:20:19.448Z,5.65
2023-01-04T08:23:20.721Z,4.53
2023-01-04T08:26:22.192Z,3.08
2023-01-04T08:29:23.533Z,4.05
2023-01-04T08:32:24.832Z,1.83
2023-01-04T08:35:26.136Z,2.67
2023-01-04T08:38:58.905Z,1.90
2023-01-04T08:42:06.737Z,3.20
2023-01-04T08:45:12.416Z,2.83
2023-01-04T08:48:13.698Z,1.65
2023-01-04T08:51:15.719Z,2.83
2023-01-04T08:54:17.001Z,2.30
2023-01-04T08:57:18.545Z,2.15
2023-01-04T09:00:21.714Z,2.55
2023-01-04T09:03:23.090Z,6.55
2023-01-04T09:06:24.631Z,2.22
2023-01-04T09:09:25.857Z,3.08
2023-01-04T09:12:27.094Z,2.45
2023-01-04T09:15:28.371Z,2.03
2023-01-04T09:18:31.814Z,1.25
2023-01-04T09:21:35.364Z,1.23
2023-01-04T09:24:36.698Z,1.60
2023-01-04T09:27:39.772Z,2.22
2023-01-04T09:30:41.051Z,2.15
2023-01-04T09:34:12.790Z,1.83
2023-01-04T09:37:04.320Z,2.08
2023-01-04T09:40:05.965Z,1.30
2023-01-04T09:43:21.060Z,1.50
2023-01-04T09:46:30.870Z,1.98
2023-01-04T09:49:39.344Z,2.22
2023-01-04T09:52:45.955Z,1.48
2023-01-04T09:55:49.576Z,2.10
2023-01-04T09:58:51.247Z,1.30
2023-01-04T10:01:55.400Z,2.75
2023-01-04T10:04:58.426Z,1.92
2023-01-04T10:07:59.851Z,3.17
2023-01-04T10:11:15.917Z,1.35
2023-01-04T10:14:17.169Z,2.53
2023-01-04T10:17:57.596Z,1.75
2023-01-04T10:21:25.318Z,1.85
2023-01-04T10:24:29.330Z,2.78
2023-01-04T10:27:43.505Z,3.10
2023-01-04T10:30:44.715Z,1.80
2023-01-04T10:33:50.774Z,5.97
2023-01-04T10:36:53.935Z,2.40
2023-01-04T10:39:56.306Z,1.45
2023-01-04T10:42:57.676Z,1.77
2023-01-04T10:46:04.745Z,2.00
2023-01-04T10:49:16.106Z,1.88
2023-01-04T10:52:23.495Z,1.73
2023-01-04T10:55:35.674Z,2.92
2023-01-04T10:58:39.530Z,2.25
2023-01-04T11:01:44.181Z,2.25
2023-01-04T11:07:51.160Z,2.40
2023-01-04T11:10:56.210Z,1.60
2023-01-04T11:13:57.673Z,1.63
2023-01-04T11:17:00.713Z,1.67
2023-01-04T11:20:02.047Z,1.50
2023-01-04T11:23:06.184Z,1.15
2023-01-04T11:26:15.815Z,2.50
2023-01-04T11:29:29.822Z,2.13
2023-01-04T11:32:31.086Z,1.50
2023-01-04T11:35:43.379Z,3.97
2023-01-04T11:38:54.407Z,2.03
2023-01-04T11:42:02.524Z,1.67
2023-01-04T11:45:04.679Z,2.97
2023-01-04T11:48:14.443Z,1.63
2023-01-04T11:51:18.104Z,2.03
2023-01-04T11:54:19.858Z,1.98
2023-01-04T11:57:21.623Z,1.67
2023-01-04T12:00:23.097Z,2.75
2023-01-04T12:03:32.207Z,1.00
2023-01-04T12:06:38.484Z,2.20
2023-01-04T12:09:39.780Z,1.00
2023-01-04T12:12:41.043Z,1.25
2023-01-04T12:15:56.334Z,1.45
2023-01-04T12:18:58.134Z,2.47
2023-01-04T12:22:01.082Z,2.22
2023-01-04T12:25:04.071Z,1.73
2023-01-04T12:28:05.556Z,2.80
2023-01-04T12:31:19.865Z,1.88
2023-01-04T12:34:22.056Z,1.48
2023-01-04T12:37:40.493Z,1.33
2023-01-04T12:40:44.663Z,1.42
2023-01-04T12:43:50.902Z,4.13
2023-01-04T12:47:10.967Z,1.85
2023-01-04T12:50:14.046Z,3.15
2023-01-04T12:53:35.238Z,2.85
2023-01-04T12:56:55.151Z,1.20
2023-01-04T13:00:06.746Z,1.77
2023-01-04T13:03:18.167Z,1.65
2023-01-04T13:06:20.230Z,2.72
2023-01-04T13:09:24.847Z,3.00
2023-01-04T13:12:29.683Z,1.48
2023-01-04T13:15:40.055Z,2.25
2023-01-04T13:18:43.236Z,2.58
2023-01-04T13:21:45.918Z,1.77
2023-01-04T13:24:47.869Z,4.18
2023-01-04T13:27:56.404Z,7.32
2023-01-04T13:31:00.021Z,18.92
2023-01-04T13:34:01.372Z,2.25
2023-01-04T13:37:02.763Z,3.70
2023-01-04T13:40:16.691Z,1.80
2023-01-04T13:43:36.383Z,2.95
2023-01-04T13:46:41.354Z,3.50
2023-01-04T13:49:42.766Z,4.07
2023-01-04T13:52:55.238Z,2.63
2023-01-04T13:56:05.281Z,2.65
2023-01-04T13:59:06.894Z,2.50
2023-01-04T14:02:19.276Z,3.22
2023-01-04T14:05:21.820Z,2.35
2023-01-04T14:08:29.979Z,2.47
2023-01-04T14:11:50.097Z,3.40
2023-01-04T14:14:58.946Z,3.53
2023-01-04T14:18:00.381Z,2.53
2023-01-04T14:21:01.656Z,1.73
2023-01-04T14:24:02.915Z,1.80
2023-01-04T14:27:24.112Z,1.63
2023-01-04T14:30:25.611Z,2.38
2023-01-04T14:33:36.295Z,2.22
2023-01-04T14:36:39.111Z,2.47
2023-01-04T14:39:41.664Z,1.90
2023-01-04T14:42:42.977Z,1.60
2023-01-04T14:45:44.285Z,2.13
2023-01-04T14:48:45.564Z,1.88
2023-01-04T14:51:48.571Z,1.65
2023-01-04T14:54:50.533Z,2.30
2023-01-04T14:57:51.789Z,2.10
2023-01-04T15:00:53.035Z,1.95
2023-01-04T15:03:54.408Z,1.58
2023-01-04T15:06:59.734Z,1.65
2023-01-04T15:10:01.507Z,1.92
2023-01-04T15:13:04.224Z,2.53
2023-01-04T15:16:05.791Z,1.35
2023-01-04T15:19:07.338Z,1.20
2023-01-04T15:22:08.603Z,2.55
2023-01-04T15:25:10.257Z,4.30
2023-01-04T15:28:11.571Z,2.63
2023-01-04T15:31:13.653Z,2.97
2023-01-04T15:34:15.030Z,2.10
2023-01-04T15:37:23.441Z,1.13
2023-01-04T15:40:25.156Z,1.33
2023-01-04T15:43:31.162Z,2.00
2023-01-04T15:46:35.468Z,2.63
2023-01-04T15:49:36.812Z,2.05
2023-01-04T15:52:38.109Z,1.77
2023-01-04T15:55:39.391Z,1.10
2023-01-04T15:58:40.705Z,1.52
2023-01-04T16:01:43.046Z,1.80
2023-01-04T16:04:45.850Z,1.77
2023-01-04T16:07:47.943Z,1.98
2023-01-04T16:10:49.322Z,2.97
2023-01-04T16:13:51.629Z,2.45
2023-01-04T16:16:53.081Z,2.15
2023-01-04T16:19:54.347Z,1.50
2023-01-04T16:22:55.648Z,1.70
2023-01-04T16:26:03.711Z,1.25
2023-01-04T16:29:05.142Z,1.50
2023-01-04T16:32:06.743Z,1.30
2023-01-04T16:35:08.269Z,2.35
2023-01-04T16:38:09.548Z,2.33
2023-01-04T16:41:12.067Z,2.17
2023-01-04T16:44:16.333Z,1.50
2023-01-04T16:47:17.770Z,1.88
2023-01-04T16:50:19.214Z,1.77
2023-01-04T16:53:20.497Z,1.83
2023-01-04T16:56:22.742Z,2.47
2023-01-04T16:59:24.067Z,1.15
2023-01-04T17:02:25.590Z,1.30
2023-01-04T17:05:26.918Z,0.93
2023-01-04T17:08:28.209Z,2.90
2023-01-04T17:15:15.030Z,2.83
2023-01-04T17:18:15.188Z,0.70
2023-01-04T17:21:33.336Z,1.73
2023-01-04T17:24:35.890Z,1.85
2023-01-04T17:27:37.266Z,1.90
2023-01-04T17:30:39.505Z,2.03
2023-01-04T17:33:40.773Z,1.58
2023-01-04T17:36:42.163Z,2.58
2023-01-04T17:39:43.515Z,2.25
2023-01-04T17:42:45.020Z,1.67
2023-01-04T17:45:46.322Z,2.38
2023-01-04T17:48:47.723Z,1.02
2023-01-04T17:51:50.565Z,1.83
2023-01-04T17:54:52.206Z,1.42
2023-01-04T17:57:53.481Z,1.27
2023-01-04T18:00:54.744Z,2.50
2023-01-04T18:03:57.295Z,1.75
2023-01-04T18:06:58.541Z,1.20
2023-01-04T18:10:00.199Z,1.73
2023-01-04T18:13:01.505Z,1.92
2023-01-04T18:16:23.349Z,1.42
2023-01-04T18:19:26.504Z,1.05
2023-01-04T18:22:27.744Z,2.15
2023-01-04T18:25:29.039Z,0.88
2023-01-04T18:28:30.287Z,1.27
2023-01-04T18:31:32.054Z,1.85
2023-01-04T18:34:33.468Z,1.85
2023-01-04T18:37:35.760Z,1.38
2023-01-04T18:40:40.216Z,1.20
2023-01-04T18:43:49.325Z,2.47
2023-01-04T18:47:03.543Z,1.52
2023-01-04T18:50:05.070Z,1.73
2023-01-04T18:53:06.444Z,1.90
2023-01-04T18:56:08.165Z,1.27
2023-01-04T18:59:09.680Z,1.40
2023-01-04T19:02:15.440Z,1.60
2023-01-04T19:05:18.844Z,1.75
2023-01-04T19:08:20.150Z,2.75
2023-01-04T19:11:21.401Z,1.80
2023-01-04T19:14:22.711Z,2.03
2023-01-04T19:17:25.904Z,2.08
2023-01-04T19:20:27.290Z,2.40
2023-01-04T19:23:28.602Z,2.05
2023-01-04T19:26:29.881Z,1.92
2023-01-04T19:29:31.307Z,2.28
2023-01-04T19:32:33.851Z,1.20
2023-01-04T19:35:39.027Z,1.92
2023-01-04T19:38:41.434Z,2.80
2023-01-04T19:41:42.674Z,1.90
2023-01-04T19:44:43.988Z,1.00
2023-01-04T19:47:45.518Z,3.03
2023-01-04T19:50:46.771Z,1.63
2023-01-04T19:53:48.078Z,1.85
2023-01-04T19:56:49.459Z,1.10
2023-01-04T19:59:50.951Z,1.40
2023-01-04T20:02:52.577Z,1.20
2023-01-04T20:05:54.155Z,1.88
2023-01-04T20:08:55.437Z,2.08
2023-01-04T20:11:56.711Z,1.58
2023-01-04T20:14:57.942Z,1.38
2023-01-04T20:17:59.206Z,1.90
2023-01-04T20:21:00.686Z,1.05
2023-01-04T20:24:02.043Z,2.53
2023-01-04T20:27:03.464Z,3.70
2023-01-04T20:30:05.020Z,1.65
2023-01-04T20:33:06.745Z,0.75
2023-01-04T20:36:09.771Z,1.25
2023-01-04T20:39:11.088Z,2.25
2023-01-04T20:42:31.021Z,2.50
2023-01-04T20:45:32.278Z,2.42
2023-01-04T20:48:33.613Z,1.75
2023-01-04T20:51:34.866Z,2.00
2023-01-04T20:54:36.156Z,1.73
2023-01-04T20:57:37.497Z,2.00
2023-01-04T21:00:39.038Z,2.72
2023-01-04T21:03:40.775Z,3.60
2023-01-04T21:06:42.100Z,1.58
2023-01-04T21:09:43.368Z,1.73
2023-01-04T21:12:44.653Z,2.53
2023-01-04T21:15:45.951Z,1.13
2023-01-04T21:18:47.300Z,2.08
2023-01-04T21:21:48.545Z,1.42
2023-01-04T21:24:50.093Z,1.42
2023-01-04T21:27:51.364Z,1.52
2023-01-04T21:30:52.719Z,2.10
2023-01-04T21:33:54.300Z,1.75
2023-01-04T21:36:55.576Z,2.47
2023-01-04T21:39:56.872Z,1.73
2023-01-04T21:42:58.460Z,1.60
2023-01-04T21:46:03.948Z,3.13
2023-01-04T21:49:06.245Z,1.92
2023-01-04T21:52:07.547Z,1.58
2023-01-04T21:55:09.276Z,2.45
2023-01-04T21:58:10.580Z,1.70
2023-01-04T22:01:13.168Z,1.58
2023-01-04T22:04:14.681Z,1.58
2023-01-04T22:07:16.028Z,1.60
2023-01-04T22:10:17.329Z,2.83
2023-01-04T22:13:18.668Z,2.45
2023-01-04T22:16:19.944Z,3.25
2023-01-04T22:19:21.275Z,2.28
2023-01-04T22:22:22.563Z,1.20
2023-01-04T22:25:24.128Z,2.78
2023-01-04T22:28:26.091Z,2.03
2023-01-04T22:31:27.521Z,2.35
2023-01-04T22:34:28.919Z,1.35
2023-01-04T22:37:30.212Z,2.05
2023-01-04T22:40:31.477Z,2.92
2023-01-04T22:43:32.747Z,2.40
2023-01-04T22:46:34.771Z,1.50
2023-01-04T22:49:36.040Z,1.13
2023-01-04T22:52:37.324Z,2.05
2023-01-04T22:56:09.356Z,0.68
2023-01-04T22:59:01.277Z,1.45
2023-01-04T23:02:02.591Z,0.90
2023-01-04T23:05:03.959Z,0.63
2023-01-04T23:08:05.381Z,2.35
2023-01-04T23:11:06.632Z,1.13
2023-01-04T23:14:09.585Z,2.33
2023-01-04T23:17:10.884Z,1.02
2023-01-04T23:20:14.690Z,0.98
2023-01-04T23:23:19.847Z,1.48
2023-01-04T23:26:21.894Z,1.30
2023-01-04T23:29:23.198Z,0.93
2023-01-04T23:32:24.476Z,3.78
2023-01-04T23:35:25.765Z,1.20
2023-01-04T23:38:27.049Z,1.60
2023-01-04T23:41:47.120Z,1.95
2023-01-04T23:44:48.945Z,1.27
2023-01-04T23:47:50.272Z,0.95
2023-01-04T23:50:55.501Z,1.17
2023-01-04T23:53:56.753Z,2.30
2023-01-04T23:56:59.609Z,1.27
